Time;durP1;ratioP1;P1;durP2;ratioP2;P2;SDS_P1;SDS_P2;PMS_P1;PMS_P2;Temp;Humidity;BMP_temperature;BMP_pressure;BME280_temperature;BME280_humidity;BME280_pressure;Samples;Min_cycle;Max_cycle;Signal;HPM_P1;HPM_P2
2023/03/09 00:00:25;;;;;;;;;;;;;;;25.25;47.63;96258.23;590330;240;66992;-68
2023/03/09 00:02:53;;;;;;;;;;;;;;;25.24;46.97;96245.90;590336;240;64715;-68
2023/03/09 00:05:20;;;;;;;;;;;;;;;25.23;46.30;96247.77;590295;240;62985;-68
2023/03/09 00:07:50;;;;;;;;;;;;;;;25.24;48.75;96248.59;590340;240;64635;-67
2023/03/09 00:10:17;;;;;;;;;;;;;;;25.21;45.52;96247.32;590299;240;64802;-69
2023/03/09 00:12:46;;;;;;;;;;;;;;;25.21;47.35;96250.02;590273;240;47001;-69
2023/03/09 00:15:14;;;;;;;;;;;;;;;25.21;51.61;96235.78;590275;240;65484;-69
2023/03/09 00:17:43;;;;;;;;;;;;;;;25.19;50.33;96236.09;590307;240;66740;-69
2023/03/09 00:20:17;;;;;;;;;;;;;;;25.19;47.53;96232.61;590316;240;65114;-69
2023/03/09 00:22:50;;;;;;;;;;;;;;;25.18;48.42;96231.01;590302;240;66979;-69
2023/03/09 00:25:17;;;;;;;;;;;;;;;25.18;48.17;96231.01;590295;240;64110;-69
2023/03/09 00:27:47;;;;;;;;;;;;;;;25.18;48.81;96236.39;590358;240;65156;-69
2023/03/09 00:30:15;;;;;;;;;;;;;;;25.17;47.70;96232.12;590081;240;66816;-69
2023/03/09 00:32:42;;;;;;;;;;;;;;;25.17;46.72;96232.12;590328;240;66560;-69
2023/03/09 00:35:10;;;;;;;;;;;;;;;25.16;49.04;96238.63;590276;240;64823;-69
2023/03/09 00:37:37;;;;;;;;;;;;;;;25.16;50.04;96230.56;590266;240;66792;-69
2023/03/09 00:40:09;;;;;;;;;;;;;;;25.16;46.73;96230.56;585199;240;67826;-69
2023/03/09 00:42:37;;;;;;;;;;;;;;;25.14;44.65;96230.83;590295;240;65193;-69
2023/03/09 00:45:07;;;;;;;;;;;;;;;25.13;47.07;96223.89;590341;240;43929;-70
2023/03/09 00:47:34;;;;;;;;;;;;;;;25.13;45.76;96228.48;590311;240;66926;-69
2023/03/09 00:50:02;;;;;;;;;;;;;;;25.13;48.81;96215.81;590256;240;65223;-69
2023/03/09 00:52:29;;;;;;;;;;;;;;;25.12;48.08;96210.75;590374;240;66814;-69
2023/03/09 00:54:57;;;;;;;;;;;;;;;25.12;47.60;96210.75;590278;240;66870;-69
2023/03/09 00:57:26;;;;;;;;;;;;;;;25.12;46.20;96213.44;590317;240;65712;-69
2023/03/09 00:59:53;;;;;;;;;;;;;;;25.10;46.66;96205.70;590317;240;64360;-69
2023/03/09 01:02:22;;;;;;;;;;;;;;;25.10;47.03;96210.27;590302;240;67214;-67
2023/03/09 01:04:50;;;;;;;;;;;;;;;25.11;48.36;96209.17;590250;240;64992;-69
2023/03/09 01:07:18;;;;;;;;;;;;;;;25.08;45.25;96204.44;590351;240;67142;-69
2023/03/09 01:09:45;;;;;;;;;;;;;;;25.10;49.20;96205.70;590267;240;66784;-69
2023/03/09 01:12:14;;;;;;;;;;;;;;;25.07;46.95;96211.69;590298;240;65504;-70
2023/03/09 01:14:41;;;;;;;;;;;;;;;25.08;48.28;96199.06;590312;240;67770;-62
2023/03/09 01:17:10;;;;;;;;;;;;;;;25.08;46.80;96212.50;590230;240;64322;-61
2023/03/09 01:19:38;;;;;;;;;;;;;;;25.07;47.44;96200.94;590356;240;64053;-61
2023/03/09 01:22:06;;;;;;;;;;;;;;;25.06;45.31;96203.95;590305;240;66883;-61
2023/03/09 01:24:34;;;;;;;;;;;;;;;25.06;49.39;96206.64;590304;240;66858;-61
2023/03/09 01:27:02;;;;;;;;;;;;;;;25.06;47.98;96203.95;590291;240;65766;-61
2023/03/09 01:29:29;;;;;;;;;;;;;;;25.05;49.09;96197.80;590274;240;67773;-61
2023/03/09 01:31:57;;;;;;;;;;;;;;;25.03;47.54;96191.94;590341;240;64518;-61
2023/03/09 01:34:24;;;;;;;;;;;;;;;25.03;47.64;96198.09;589386;240;62717;-61
2023/03/09 01:36:52;;;;;;;;;;;;;;;25.02;46.00;96201.12;590283;240;65412;-61
2023/03/09 01:39:19;;;;;;;;;;;;;;;25.03;47.98;96203.47;590324;240;66831;-61
2023/03/09 01:41:47;;;;;;;;;;;;;;;25.03;49.71;96195.41;590288;240;66122;-61
2023/03/09 01:44:14;;;;;;;;;;;;;;;25.01;45.69;96197.61;590325;240;67728;-61
2023/03/09 01:46:50;;;;;;;;;;;;;;;24.99;45.80;96191.79;590334;240;66519;-70
2023/03/09 01:49:22;;;;;;;;;;;;;;;25.00;47.18;96190.67;590288;240;62425;-69
2023/03/09 01:51:51;;;;;;;;;;;;;;;24.99;45.94;96194.48;590305;240;64622;-70
2023/03/09 01:54:23;;;;;;;;;;;;;;;25.00;46.79;96198.73;590266;240;67554;-70
2023/03/09 01:56:53;;;;;;;;;;;;;;;24.98;47.52;96192.88;590200;240;62857;-70
2023/03/09 01:59:21;;;;;;;;;;;;;;;24.98;47.91;96192.09;590360;240;67470;-67
2023/03/09 02:01:49;;;;;;;;;;;;;;;24.97;47.08;96185.93;590306;240;67320;-68
2023/03/09 02:04:18;;;;;;;;;;;;;;;24.97;47.87;96183.24;590294;240;65001;-68
2023/03/09 02:06:46;;;;;;;;;;;;;;;24.96;47.27;96178.17;590306;240;66962;-68
2023/03/09 02:09:15;;;;;;;;;;;;;;;24.96;47.88;96178.17;590286;240;66506;-68
2023/03/09 02:11:43;;;;;;;;;;;;;;;24.95;47.50;96182.77;590266;240;65550;-68
2023/03/09 02:14:11;;;;;;;;;;;;;;;24.95;48.07;96176.60;590326;240;66512;-68
2023/03/09 02:16:39;;;;;;;;;;;;;;;24.93;48.43;96174.22;590296;240;67015;-68
2023/03/09 02:19:09;;;;;;;;;;;;;;;24.91;46.54;96171.08;590293;240;63643;-68
2023/03/09 02:21:38;;;;;;;;;;;;;;;24.91;46.68;96165.70;590181;240;67209;-69
2023/03/09 02:24:10;;;;;;;;;;;;;;;24.92;47.47;96169.17;590078;240;66530;-69
2023/03/09 02:26:54;;;;;;;;;;;;;;;24.90;46.89;96169.48;590192;240;63578;-68
2023/03/09 02:29:22;;;;;;;;;;;;;;;24.89;46.16;96167.13;585196;240;65932;-68
2023/03/09 02:31:50;;;;;;;;;;;;;;;24.89;45.30;96169.81;585175;240;67820;-68
2023/03/09 02:34:18;;;;;;;;;;;;;;;24.86;45.75;96157.80;588491;240;62604;-68
2023/03/09 02:36:47;;;;;;;;;;;;;;;24.89;49.45;96153.69;586055;242;67123;-68
2023/03/09 02:39:25;;;;;;;;;;;;;;;24.88;47.50;96163.66;586052;242;64206;-69
2023/03/09 02:41:54;;;;;;;;;;;;;;;24.86;48.00;96152.42;586119;242;65774;-68
2023/03/09 02:44:22;;;;;;;;;;;;;;;24.87;47.23;96150.52;586035;242;67618;-68
2023/03/09 02:46:50;;;;;;;;;;;;;;;24.86;48.91;96151.64;586020;242;64731;-68
2023/03/09 02:49:18;;;;;;;;;;;;;;;24.84;46.71;96160.00;586041;242;65657;-68
2023/03/09 02:51:45;;;;;;;;;;;;;;;24.83;46.78;96150.37;586068;242;66895;-59
2023/03/09 02:54:13;;;;;;;;;;;;;;;24.84;47.36;96154.63;586091;242;65557;-59
2023/03/09 02:56:41;;;;;;;;;;;;;;;24.83;44.95;96155.74;586059;242;65060;-59
2023/03/09 02:59:08;;;;;;;;;;;;;;;24.84;49.84;96143.09;586031;242;66838;-59
2023/03/09 03:01:36;;;;;;;;;;;;;;;24.82;46.13;96140.70;586061;242;65311;-59
2023/03/09 03:04:03;;;;;;;;;;;;;;;24.81;46.66;96139.14;586058;242;64987;-59
2023/03/09 03:06:33;;;;;;;;;;;;;;;24.80;46.08;96132.20;586129;242;43493;-60
2023/03/09 03:09:00;;;;;;;;;;;;;;;24.81;48.23;96134.55;586027;242;64784;-60
2023/03/09 03:11:28;;;;;;;;;;;;;;;24.79;45.81;96141.34;586056;242;64967;-60
2023/03/09 03:13:56;;;;;;;;;;;;;;;24.78;45.21;96148.62;586012;242;65055;-60
2023/03/09 03:16:24;;;;;;;;;;;;;;;24.79;46.65;96146.72;586054;242;67196;-69
2023/03/09 03:18:51;;;;;;;;;;;;;;;24.77;45.78;96146.23;586063;242;65099;-69
2023/03/09 03:21:19;;;;;;;;;;;;;;;24.77;45.51;96152.42;586102;242;64575;-69
2023/03/09 03:23:47;;;;;;;;;;;;;;;24.77;48.03;96144.36;586032;242;67577;-68
2023/03/09 03:26:14;;;;;;;;;;;;;;;24.77;45.26;96146.23;586014;242;65930;-69
2023/03/09 03:28:44;;;;;;;;;;;;;;;24.76;46.07;96147.36;585990;242;44123;-68
2023/03/09 03:31:13;;;;;;;;;;;;;;;24.75;46.09;96143.09;585726;242;49581;-67
2023/03/09 03:33:41;;;;;;;;;;;;;;;24.75;46.97;96138.52;586025;241;65722;-68
2023/03/09 03:36:08;;;;;;;;;;;;;;;24.74;45.47;96141.50;586019;242;67491;-68
2023/03/09 03:38:37;;;;;;;;;;;;;;;24.73;45.41;96140.72;586043;242;66952;-68
2023/03/09 03:41:04;;;;;;;;;;;;;;;24.72;45.84;96144.52;586014;242;63003;-67
2023/03/09 03:43:32;;;;;;;;;;;;;;;24.73;48.09;96147.98;586024;242;67762;-67
2023/03/09 03:46:00;;;;;;;;;;;;;;;24.73;48.17;96147.98;586085;242;67866;-68
2023/03/09 03:48:28;;;;;;;;;;;;;;;24.72;46.75;96146.42;586016;242;62600;-68
2023/03/09 03:50:56;;;;;;;;;;;;;;;24.70;45.23;96143.25;586042;242;67690;-68
2023/03/09 03:53:23;;;;;;;;;;;;;;;24.70;47.04;96148.62;586007;242;66938;-68
2023/03/09 03:55:53;;;;;;;;;;;;;;;24.69;49.31;96150.53;586077;242;42378;-68
2023/03/09 03:58:20;;;;;;;;;;;;;;;24.69;49.51;96147.03;586037;242;64961;-67
2023/03/09 04:00:48;;;;;;;;;;;;;;;24.69;47.08;96163.14;586023;242;67279;-68
2023/03/09 04:03:17;;;;;;;;;;;;;;;24.67;45.06;96155.42;586009;242;64921;-68
2023/03/09 04:05:46;;;;;;;;;;;;;;;24.65;45.67;96149.56;586012;242;67731;-68
2023/03/09 04:08:15;;;;;;;;;;;;;;;24.67;46.10;96150.05;586038;242;64936;-68
2023/03/09 04:10:44;;;;;;;;;;;;;;;24.66;45.89;96153.03;586024;242;65685;-68
2023/03/09 04:13:12;;;;;;;;;;;;;;;24.66;46.72;96148.45;586081;242;67985;-69
2023/03/09 04:15:40;;;;;;;;;;;;;;;24.65;45.86;96157.63;586099;242;65472;-69
2023/03/09 04:18:07;;;;;;;;;;;;;;;24.64;47.43;96152.58;585919;242;65818;-69
2023/03/09 04:20:37;;;;;;;;;;;;;;;24.65;48.03;96159.52;585995;242;68097;-69
2023/03/09 04:23:04;;;;;;;;;;;;;;;24.62;47.02;96142.14;586044;242;67773;-69
2023/03/09 04:25:32;;;;;;;;;;;;;;;24.62;45.43;96141.35;585585;242;65180;-69
2023/03/09 04:28:02;;;;;;;;;;;;;;;24.61;45.66;96139.75;586105;242;45709;-68
2023/03/09 04:30:32;;;;;;;;;;;;;;;24.61;48.18;96140.56;585833;242;48110;-68
2023/03/09 04:33:01;;;;;;;;;;;;;;;24.60;44.51;96133.59;586071;242;46461;-69
2023/03/09 04:35:28;;;;;;;;;;;;;;;24.59;47.58;96138.19;589856;240;67274;-68
2023/03/09 04:37:58;;;;;;;;;;;;;;;24.59;45.86;96143.55;590229;240;44260;-69
2023/03/09 04:40:26;;;;;;;;;;;;;;;24.59;47.63;96138.19;590354;240;65090;-69
2023/03/09 04:42:55;;;;;;;;;;;;;;;24.58;48.63;96131.24;590272;240;44137;-69
2023/03/09 04:45:22;;;;;;;;;;;;;;;24.57;45.17;96124.27;590287;240;67081;-69
2023/03/09 04:47:51;;;;;;;;;;;;;;;24.56;45.32;96124.60;590261;240;63756;-68
2023/03/09 04:50:20;;;;;;;;;;;;;;;24.56;44.58;96121.92;590260;240;68144;-69
2023/03/09 04:52:52;;;;;;;;;;;;;;;24.55;46.46;96118.45;590333;240;45634;-68
2023/03/09 04:55:20;;;;;;;;;;;;;;;24.53;44.60;96117.96;590286;240;66079;-68
2023/03/09 04:57:50;;;;;;;;;;;;;;;24.54;47.74;96118.75;590235;240;65275;-68
2023/03/09 05:00:19;;;;;;;;;;;;;;;24.53;44.59;96111.80;590270;240;67659;-69
2023/03/09 05:02:48;;;;;;;;;;;;;;;24.52;47.42;96113.67;590290;240;65130;-69
2023/03/09 05:05:16;;;;;;;;;;;;;;;24.53;46.22;96120.65;590277;240;67261;-68
2023/03/09 05:07:44;;;;;;;;;;;;;;;24.51;45.01;96114.80;590349;240;64521;-68
2023/03/09 05:10:12;;;;;;;;;;;;;;;24.50;45.25;96123.97;590274;240;65755;-68
2023/03/09 05:12:41;;;;;;;;;;;;;;;24.51;47.28;96125.53;590160;240;45825;-68
2023/03/09 05:15:11;;;;;;;;;;;;;;;24.49;44.43;96122.37;590293;240;43388;-68
2023/03/09 05:17:39;;;;;;;;;;;;;;;24.49;44.55;96127.74;590258;240;65057;-68
2023/03/09 05:20:11;;;;;;;;;;;;;;;24.49;46.37;96122.37;590319;240;67810;-68
2023/03/09 05:22:40;;;;;;;;;;;;;;;24.48;46.75;96115.43;590218;240;43261;-69
2023/03/09 05:25:09;;;;;;;;;;;;;;;24.47;46.42;96116.55;590253;240;50303;-69
2023/03/09 05:27:37;;;;;;;;;;;;;;;24.47;46.96;96119.23;590250;240;67706;-69
2023/03/09 05:30:06;;;;;;;;;;;;;;;24.46;46.34;96112.27;590299;240;64301;-69
2023/03/09 05:32:34;;;;;;;;;;;;;;;24.46;46.21;96116.84;590282;240;62901;-70
2023/03/09 05:35:02;;;;;;;;;;;;;;;24.45;46.15;96126.80;587264;240;65085;-69
2023/03/09 05:37:31;;;;;;;;;;;;;;;24.44;44.80;96130.58;586011;242;67382;-70
2023/03/09 05:39:59;;;;;;;;;;;;;;;24.45;46.94;96129.48;586043;242;65985;-69
2023/03/09 05:42:27;;;;;;;;;;;;;;;24.43;43.46;96138.94;586055;242;64600;-70
2023/03/09 05:44:55;;;;;;;;;;;;;;;24.43;46.01;96134.34;586029;242;65744;-69
2023/03/09 05:47:23;;;;;;;;;;;;;;;24.41;44.79;96141.92;586097;242;65796;-69
2023/03/09 05:49:50;;;;;;;;;;;;;;;24.43;47.25;96149.67;586020;242;67313;-69
2023/03/09 05:52:19;;;;;;;;;;;;;;;24.41;48.04;96133.86;586024;242;67010;-69
2023/03/09 05:54:46;;;;;;;;;;;;;;;24.40;46.94;96143.03;585966;242;62522;-69
2023/03/09 05:57:16;;;;;;;;;;;;;;;24.40;46.06;96129.61;586013;242;67355;-69
2023/03/09 05:59:47;;;;;;;;;;;;;;;24.41;48.61;96130.39;586133;242;47066;-69
2023/03/09 06:02:14;;;;;;;;;;;;;;;24.39;45.02;96125.35;585960;242;62785;-69
2023/03/09 06:04:43;;;;;;;;;;;;;;;24.38;46.48;96129.91;585904;242;66252;-69
2023/03/09 06:07:12;;;;;;;;;;;;;;;24.39;48.10;96130.72;586047;242;67726;-69
2023/03/09 06:09:42;;;;;;;;;;;;;;;24.40;46.07;96126.14;586058;242;43353;-69
2023/03/09 06:12:11;;;;;;;;;;;;;;;24.38;48.34;96137.18;586011;242;44021;-69
2023/03/09 06:14:40;;;;;;;;;;;;;;;24.38;44.69;96137.18;586067;242;67098;-69
2023/03/09 06:17:09;;;;;;;;;;;;;;;24.38;45.57;96127.22;586037;242;62626;-69
2023/03/09 06:19:38;;;;;;;;;;;;;;;24.37;44.84;96125.66;586063;241;46727;-69
2023/03/09 06:22:06;;;;;;;;;;;;;;;24.38;44.35;96129.13;586042;242;64375;-68
2023/03/09 06:24:33;;;;;;;;;;;;;;;24.39;50.61;96128.03;586068;242;65687;-68
2023/03/09 06:27:02;;;;;;;;;;;;;;;24.38;46.79;96137.97;586063;242;67527;-68
2023/03/09 06:29:31;;;;;;;;;;;;;;;24.38;46.90;96134.50;586052;242;43939;-69
2023/03/09 06:31:59;;;;;;;;;;;;;;;24.38;47.16;96121.06;586038;242;65124;-70
2023/03/09 06:34:30;;;;;;;;;;;;;;;24.37;45.34;96128.34;586001;241;64547;-68
2023/03/09 06:37:00;;;;;;;;;;;;;;;24.38;46.88;96115.70;586068;242;67377;-70
2023/03/09 06:39:28;;;;;;;;;;;;;;;24.36;46.82;96118.72;586063;242;65144;-67
2023/03/09 06:41:56;;;;;;;;;;;;;;;24.38;45.48;96113.02;586039;242;65537;-69
2023/03/09 06:44:25;;;;;;;;;;;;;;;24.38;49.60;96107.64;584455;242;48532;-67
2023/03/09 06:46:53;;;;;;;;;;;;;;;24.38;47.84;96107.64;586014;242;64953;-69
2023/03/09 06:49:21;;;;;;;;;;;;;;;24.37;45.71;96114.91;586028;242;67816;-68
2023/03/09 06:51:50;;;;;;;;;;;;;;;24.38;49.50;96111.11;585996;242;67401;-69
2023/03/09 06:54:18;;;;;;;;;;;;;;;24.38;46.99;96104.95;586054;242;65695;-67
2023/03/09 06:56:47;;;;;;;;;;;;;;;24.38;48.78;96115.70;585883;242;45351;-67
2023/03/09 06:59:15;;;;;;;;;;;;;;;24.37;47.45;96103.39;586027;242;65672;-67
2023/03/09 07:01:43;;;;;;;;;;;;;;;24.38;45.54;96104.95;586032;242;65030;-70
2023/03/09 07:04:12;;;;;;;;;;;;;;;24.38;48.54;96096.90;586047;242;67230;-67
2023/03/09 07:06:39;;;;;;;;;;;;;;;24.39;48.46;96098.50;586057;242;66985;-67
2023/03/09 07:09:07;;;;;;;;;;;;;;;24.39;46.20;96095.81;586015;242;65027;-66
2023/03/09 07:11:35;;;;;;;;;;;;;;;24.40;48.50;96088.55;586019;242;66816;-66
2023/03/09 07:14:03;;;;;;;;;;;;;;;24.42;50.16;96089.81;585377;242;66897;-65
2023/03/09 07:16:31;;;;;;;;;;;;;;;24.44;48.64;96089.50;586490;241;65144;-65
2023/03/09 07:18:58;;;;;;;;;;;;;;;24.45;50.50;96083.83;588030;241;67556;-65
2023/03/09 07:21:26;;;;;;;;;;;;;;;24.47;48.02;96078.94;587780;241;64756;-65
2023/03/09 07:23:53;;;;;;;;;;;;;;;24.49;49.17;96090.14;587740;241;63869;-66
2023/03/09 07:26:21;;;;;;;;;;;;;;;24.50;48.53;96085.55;588008;241;67084;-67
2023/03/09 07:28:49;;;;;;;;;;;;;;;24.52;47.72;96075.29;586266;241;64866;-67
2023/03/09 07:31:16;;;;;;;;;;;;;;;24.52;46.57;96081.45;586199;241;63774;-66
2023/03/09 07:33:44;;;;;;;;;;;;;;;24.53;47.37;96085.73;586936;237;67412;-65
2023/03/09 07:36:11;;;;;;;;;;;;;;;24.54;48.29;96081.14;589451;237;66911;-65
2023/03/09 07:38:39;;;;;;;;;;;;;;;24.56;49.53;96084.31;589974;237;63116;-65
2023/03/09 07:41:07;;;;;;;;;;;;;;;24.56;49.76;96087.78;592901;237;67292;-66
2023/03/09 07:43:35;;;;;;;;;;;;;;;24.58;50.20;96087.45;594592;237;67116;-66
2023/03/09 07:46:08;;;;;;;;;;;;;;;24.58;48.41;96099.01;598188;237;64936;-64
2023/03/09 07:48:37;;;;;;;;;;;;;;;24.58;45.90;96090.95;598176;237;64971;-65
2023/03/09 07:51:05;;;;;;;;;;;;;;;24.59;47.35;96092.52;598077;237;64758;-67
2023/03/09 07:53:34;;;;;;;;;;;;;;;24.62;49.48;96093.00;598130;237;65081;-68
2023/03/09 07:56:03;;;;;;;;;;;;;;;24.61;48.08;96097.59;598116;237;67087;-68
2023/03/09 07:58:31;;;;;;;;;;;;;;;24.62;48.05;96095.69;598178;237;64692;-65
2023/03/09 08:00:59;;;;;;;;;;;;;;;24.63;48.65;96089.20;598148;237;62983;-65
2023/03/09 08:03:27;;;;;;;;;;;;;;;24.64;48.72;96090.80;598036;237;65129;-69
2023/03/09 08:05:55;;;;;;;;;;;;;;;24.64;46.94;96088.11;598115;237;67428;-66
2023/03/09 08:08:24;;;;;;;;;;;;;;;24.65;48.82;96092.36;598174;237;65159;-66
2023/03/09 08:10:52;;;;;;;;;;;;;;;24.65;47.63;96084.30;598111;237;65058;-67
2023/03/09 08:13:21;;;;;;;;;;;;;;;24.65;48.61;96087.77;598140;237;67062;-70
2023/03/09 08:15:49;;;;;;;;;;;;;;;24.66;49.23;96086.66;598133;237;65968;-69
2023/03/09 08:18:20;;;;;;;;;;;;;;;24.66;47.61;96086.66;598096;237;64944;-67
2023/03/09 08:20:47;;;;;;;;;;;;;;;24.68;49.38;96091.72;598158;237;66925;-67
2023/03/09 08:23:15;;;;;;;;;;;;;;;24.68;46.92;96089.83;598193;237;64912;-67
2023/03/09 08:25:42;;;;;;;;;;;;;;;24.69;48.86;96087.92;598091;235;64539;-66
2023/03/09 08:28:10;;;;;;;;;;;;;;;24.69;48.91;96091.42;598173;237;66967;-68
2023/03/09 08:30:38;;;;;;;;;;;;;;;24.70;48.54;96095.67;598106;237;64886;-67
2023/03/09 08:33:06;;;;;;;;;;;;;;;24.69;45.88;96094.11;598104;237;65259;-68
2023/03/09 08:35:34;;;;;;;;;;;;;;;24.71;49.03;96096.46;598095;237;67136;-66
2023/03/09 08:38:02;;;;;;;;;;;;;;;24.71;47.19;96091.87;598193;237;65082;-67
2023/03/09 08:40:30;;;;;;;;;;;;;;;24.71;47.92;96099.93;592508;237;67265;-67
2023/03/09 08:42:57;;;;;;;;;;;;;;;24.71;46.08;96102.62;590461;239;64994;-65
2023/03/09 08:45:25;;;;;;;;;;;;;;;24.73;48.21;96095.04;590499;240;63081;-64
2023/03/09 08:47:52;;;;;;;;;;;;;;;24.73;48.49;96089.66;590889;237;65019;-66
2023/03/09 08:50:20;;;;;;;;;;;;;;;24.74;47.99;96091.23;588279;241;65059;-66
2023/03/09 08:52:48;;;;;;;;;;;;;;;24.76;47.11;96104.36;588624;241;62887;-68
2023/03/09 08:55:15;;;;;;;;;;;;;;;24.75;45.42;96083.98;588552;241;67172;-66
2023/03/09 08:57:43;;;;;;;;;;;;;;;24.76;49.37;96083.66;588506;241;64952;-67
2023/03/09 09:00:11;;;;;;;;;;;;;;;24.77;48.44;96079.88;588549;241;63915;-66
2023/03/09 09:02:40;;;;;;;;;;;;;;;24.77;46.81;96079.06;588579;241;67435;-64
2023/03/09 09:05:09;;;;;;;;;;;;;;;24.80;47.67;96078.45;588652;241;66779;-66
2023/03/09 09:07:37;;;;;;;;;;;;;;;24.79;47.28;96076.86;588487;241;63848;-69
2023/03/09 09:10:05;;;;;;;;;;;;;;;24.80;47.72;96078.45;588554;241;67201;-65
2023/03/09 09:12:37;;;;;;;;;;;;;;;24.80;48.76;96073.86;588616;241;66738;-66
2023/03/09 09:15:03;;;;;;;;;;;;;;;24.81;48.06;96071.96;588422;241;63033;-66
2023/03/09 09:17:30;;;;;;;;;;;;;;;24.81;48.17;96069.27;588612;241;67181;-66
2023/03/09 09:19:58;;;;;;;;;;;;;;;24.81;45.89;96063.90;589326;240;65375;-67
2023/03/09 09:22:25;;;;;;;;;;;;;;;24.82;47.12;96060.09;590601;240;62856;-64
2023/03/09 09:24:53;;;;;;;;;;;;;;;24.84;48.24;96054.41;590711;240;65581;-65
2023/03/09 09:27:20;;;;;;;;;;;;;;;24.84;47.91;96057.09;590721;240;66917;-67
2023/03/09 09:29:48;;;;;;;;;;;;;;;24.85;47.18;96062.14;590689;240;65141;-65
2023/03/09 09:32:16;;;;;;;;;;;;;;;24.85;46.58;96056.77;590726;240;67306;-67
2023/03/09 09:34:43;;;;;;;;;;;;;;;24.86;45.99;96061.05;590797;240;67168;-67
2023/03/09 09:37:11;;;;;;;;;;;;;;;24.87;49.15;96054.55;590813;240;62805;-63
2023/03/09 09:39:39;;;;;;;;;;;;;;;24.88;48.72;96058.84;590842;240;66963;-66
2023/03/09 09:42:09;;;;;;;;;;;;;;;24.87;46.56;96038.44;590898;240;67134;-67
2023/03/09 09:44:38;;;;;;;;;;;;;;;24.85;48.42;96043.33;589621;240;65114;-65
2023/03/09 09:47:07;;;;;;;;;;;;;;;24.84;47.74;96039.08;590766;240;67554;-67
2023/03/09 09:49:36;;;;;;;;;;;;;;;24.84;48.64;96039.08;590794;240;67050;-67
2023/03/09 09:52:08;;;;;;;;;;;;;;;24.83;48.47;96026.76;590663;240;62813;-65
2023/03/09 09:54:54;;;;;;;;;;;;;;;24.83;48.29;96032.13;590685;240;67427;-65
2023/03/09 09:57:25;;;;;;;;;;;;;;;24.83;48.69;96024.07;590816;240;67153;-67
2023/03/09 09:59:58;;;;;;;;;;;;;;;24.83;47.84;96025.94;590507;240;64902;-68
2023/03/09 10:02:36;;;;;;;;;;;;;;;24.82;49.91;96017.09;590880;240;67356;-67
2023/03/09 10:05:05;;;;;;;;;;;;;;;24.83;48.23;96012.51;590795;240;67024;-66
2023/03/09 10:07:34;;;;;;;;;;;;;;;24.82;47.56;96022.47;590836;240;65956;-66
2023/03/09 10:10:03;;;;;;;;;;;;;;;24.82;48.51;96017.09;590811;240;72941;-66
2023/03/09 10:12:30;;;;;;;;;;;;;;;24.82;47.93;96011.73;590774;240;66993;-67
2023/03/09 10:15:00;;;;;;;;;;;;;;;24.84;48.31;96009.52;590877;240;65040;-66
2023/03/09 10:17:29;;;;;;;;;;;;;;;24.83;47.08;96002.58;590232;240;67272;-66
2023/03/09 10:19:58;;;;;;;;;;;;;;;24.84;49.13;96000.67;590736;240;64864;-66
2023/03/09 10:22:27;;;;;;;;;;;;;;;24.84;48.97;95998.77;590873;240;65095;-67
2023/03/09 10:24:56;;;;;;;;;;;;;;;24.84;48.77;95998.77;590903;240;64589;-66
2023/03/09 10:27:45;;;;;;;;;;;;;;;24.85;46.43;95994.17;590896;240;66688;-67
2023/03/09 10:30:22;;;;;;;;;;;;;;;24.85;48.13;95989.59;584116;242;65112;-67
2023/03/09 10:32:57;;;;;;;;;;;;;;;24.86;49.21;95983.12;584122;242;66973;-66
2023/03/09 10:35:39;;;;;;;;;;;;;;;24.86;49.73;95991.18;581935;242;64892;-68
2023/03/09 10:38:11;;;;;;;;;;;;;;;24.84;41.15;95990.70;581728;243;63093;-61
2023/03/09 10:40:41;;;;;;;;;;;;;;;24.86;42.89;95985.80;581554;243;66930;-61
2023/03/09 10:43:11;;;;;;;;;;;;;;;24.88;48.11;95972.03;580248;243;64835;-61
2023/03/09 10:45:38;;;;;;;;;;;;;;;24.87;48.66;95967.78;581581;243;65042;-58
2023/03/09 10:48:06;;;;;;;;;;;;;;;24.86;43.64;95956.25;581624;243;64781;-58
2023/03/09 10:50:36;;;;;;;;;;;;;;;24.86;48.51;95952.77;581583;243;67172;-60
2023/03/09 10:53:21;;;;;;;;;;;;;;;24.85;48.61;95954.65;581504;243;64910;-60
2023/03/09 10:55:48;;;;;;;;;;;;;;;24.84;47.12;95945.02;587094;241;66968;-59
2023/03/09 10:58:17;;;;;;;;;;;;;;;24.84;47.66;95936.95;588361;241;64933;-59
2023/03/09 11:01:02;;;;;;;;;;;;;;;24.84;49.55;95928.90;588329;241;62955;-65
2023/03/09 11:03:37;;;;;;;;;;;;;;;24.81;38.96;95918.80;588339;241;67506;-63
2023/03/09 11:06:15;;;;;;;;;;;;;;;24.86;50.58;95917.84;588357;241;67016;-63
2023/03/09 11:08:45;;;;;;;;;;;;;;;24.83;46.91;95916.59;588287;241;65320;-65
2023/03/09 11:11:17;;;;;;;;;;;;;;;24.83;47.75;95905.84;588284;241;67309;-62
2023/03/09 11:13:44;;;;;;;;;;;;;;;24.82;48.73;95898.87;588102;241;64879;-62
2023/03/09 11:16:16;;;;;;;;;;;;;;;24.81;47.42;95900.77;588362;241;65065;-62
2023/03/09 11:18:45;;;;;;;;;;;;;;;24.81;50.16;95902.67;588372;241;64970;-61
2023/03/09 11:21:14;;;;;;;;;;;;;;;24.80;47.32;95888.45;588351;241;67132;-61
2023/03/09 11:23:46;;;;;;;;;;;;;;;24.80;49.59;95888.45;588330;240;65145;-61
2023/03/09 11:26:22;;;;;;;;;;;;;;;24.81;47.94;95889.23;590933;240;67339;-62
2023/03/09 11:28:57;;;;;;;;;;;;;;;24.80;47.91;95882.30;591241;240;69182;-62
2023/03/09 11:31:26;;;;;;;;;;;;;;;24.80;49.97;95877.71;591159;240;62937;-61
2023/03/09 11:33:57;;;;;;;;;;;;;;;24.80;48.63;95866.96;588509;240;67565;-62
2023/03/09 11:36:43;;;;;;;;;;;;;;;24.80;48.00;95863.49;588708;241;66995;-66
2023/03/09 11:39:12;;;;;;;;;;;;;;;24.79;42.18;95867.27;588694;237;65131;-69
2023/03/09 11:41:42;;;;;;;;;;;;;;;24.81;46.19;95865.06;586993;241;64800;-67
2023/03/09 11:44:11;;;;;;;;;;;;;;;24.82;49.48;95861.25;588684;241;66981;-67
2023/03/09 11:46:38;;;;;;;;;;;;;;;24.81;49.44;95852.41;587972;241;65280;-66
2023/03/09 11:49:08;;;;;;;;;;;;;;;24.81;50.17;95867.74;588709;241;67021;-66
2023/03/09 11:51:41;;;;;;;;;;;;;;;24.80;46.89;95856.22;587859;241;45240;-67
2023/03/09 11:54:13;;;;;;;;;;;;;;;24.80;48.18;95842.78;588674;241;65050;-66
2023/03/09 11:56:42;;;;;;;;;;;;;;;24.82;47.95;95842.44;588439;241;64923;-66
2023/03/09 11:59:28;;;;;;;;;;;;;;;24.80;47.97;95845.47;588713;241;67827;-65
2023/03/09 12:01:57;;;;;;;;;;;;;;;24.80;47.92;95823.97;588644;237;65089;-65
2023/03/09 12:04:24;;;;;;;;;;;;;;;24.80;47.55;95842.78;588598;239;66912;-66
2023/03/09 12:07:08;;;;;;;;;;;;;;;24.81;48.94;95838.19;588658;241;64752;-69
2023/03/09 12:09:38;;;;;;;;;;;;;;;24.80;49.86;95833.94;574666;246;65256;-68
2023/03/09 12:12:10;;;;;;;;;;;;;;;24.80;48.67;95836.62;583685;241;68176;-68
2023/03/09 12:14:38;;;;;;;;;;;;;;;24.80;47.67;95833.94;588608;241;68096;-68
2023/03/09 12:17:13;;;;;;;;;;;;;;;24.81;48.71;95840.88;588700;239;62894;-70
2023/03/09 12:19:42;;;;;;;;;;;;;;;24.79;47.04;95833.13;588443;241;65218;-69
2023/03/09 12:22:15;;;;;;;;;;;;;;;24.80;47.30;95828.56;588572;237;64983;-68
2023/03/09 12:24:46;;;;;;;;;;;;;;;24.80;48.15;95840.09;588646;241;65159;-68
2023/03/09 12:27:15;;;;;;;;;;;;;;;24.80;48.26;95833.94;588433;241;64915;-68
2023/03/09 12:29:46;;;;;;;;;;;;;;;24.80;48.01;95829.34;588675;241;66955;-68
2023/03/09 12:32:28;;;;;;;;;;;;;;;24.80;49.07;95821.28;588725;241;65111;-68
2023/03/09 12:34:57;;;;;;;;;;;;;;;24.79;47.33;95825.06;588657;240;64936;-68
2023/03/09 12:37:38;;;;;;;;;;;;;;;24.79;48.61;95822.38;588686;241;64961;-68
2023/03/09 12:40:20;;;;;;;;;;;;;;;24.78;47.97;95812.75;588714;241;65067;-68
2023/03/09 12:42:49;;;;;;;;;;;;;;;24.79;47.10;95816.22;588615;241;68007;-68
2023/03/09 12:45:21;;;;;;;;;;;;;;;24.80;49.23;95820.50;588710;241;64955;-67
2023/03/09 12:47:50;;;;;;;;;;;;;;;24.78;46.48;95817.34;588633;241;65045;-66
2023/03/09 12:50:22;;;;;;;;;;;;;;;24.79;47.36;95813.53;588695;241;67320;-67
2023/03/09 12:52:51;;;;;;;;;;;;;;;24.78;48.50;95804.69;583093;241;63104;-65
2023/03/09 12:55:24;;;;;;;;;;;;;;;24.78;47.06;95793.16;582811;241;46360;-66
2023/03/09 12:57:53;;;;;;;;;;;;;;;24.78;48.22;95790.48;588657;241;67265;-66